createdAt,value
2022-12-12T00:01:31.128Z,56223.84
2022-12-12T00:04:00.082Z,56215.88
2022-12-12T00:06:29.196Z,56231.81
2022-12-12T00:08:59.253Z,56359.13
2022-12-12T00:11:29.055Z,56339.25
2022-12-12T00:13:57.872Z,56355.16
2022-12-12T00:16:26.495Z,56430.78
2022-12-12T00:18:55.594Z,56532.25
2022-12-12T00:21:25.808Z,56587.97
2022-12-12T00:23:54.835Z,56558.13
2022-12-12T00:26:29.359Z,56562.09
2022-12-12T00:28:58.691Z,56625.78
2022-12-12T00:31:27.509Z,56753.13
2022-12-12T00:33:55.925Z,56709.34
2022-12-12T00:36:26.589Z,56621.78
2022-12-12T00:38:55.835Z,56510.38
2022-12-12T00:41:24.379Z,56392.97
2022-12-12T00:43:54.201Z,56432.75
2022-12-12T00:46:25.624Z,56430.78
2022-12-12T00:48:55.888Z,56381.03
2022-12-12T00:51:27.116Z,56337.25
2022-12-12T00:53:57.954Z,56132.31
2022-12-12T00:56:27.489Z,56104.47
2022-12-12T00:58:57.239Z,55991.06
2022-12-12T01:01:28.035Z,56106.44
2022-12-12T01:03:56.484Z,56080.59
2022-12-12T01:06:25.203Z,55913.47
2022-12-12T01:08:54.651Z,55877.66
2022-12-12T01:11:23.626Z,55855.78
2022-12-12T01:13:54.076Z,55823.94
2022-12-12T01:16:24.613Z,55806.03
2022-12-12T01:18:53.165Z,55782.16
2022-12-12T01:21:22.987Z,55821.94
2022-12-12T01:23:51.673Z,55770.22
2022-12-12T01:26:22.106Z,55726.47
2022-12-12T01:28:51.541Z,55738.41
2022-12-12T01:31:20.147Z,55776.19
2022-12-12T01:33:50.171Z,55792.13
2022-12-12T01:36:20.948Z,55855.78
2022-12-12T01:38:51.957Z,55672.75
2022-12-12T01:41:20.916Z,55660.81
2022-12-12T01:43:49.750Z,55654.84
2022-12-12T01:46:41.323Z,55640.91
2022-12-12T01:49:24.084Z,55634.94
2022-12-12T01:51:56.915Z,55629.00
2022-12-12T01:54:28.942Z,55507.63
2022-12-12T01:57:00.300Z,55597.16
2022-12-12T01:59:29.719Z,55603.13
2022-12-12T02:01:58.257Z,55674.75
2022-12-12T02:04:29.489Z,55654.84
2022-12-12T02:06:58.886Z,55581.25
2022-12-12T02:09:27.952Z,55555.38
2022-12-12T02:11:58.436Z,55579.25
2022-12-12T02:14:30.200Z,55664.78
2022-12-12T02:17:12.006Z,55577.25
2022-12-12T02:20:09.227Z,55543.44
2022-12-12T02:23:01.811Z,55577.25
2022-12-12T02:25:53.498Z,55579.25
2022-12-12T02:28:52.970Z,55611.09
2022-12-12T02:31:28.437Z,55634.94
2022-12-12T02:34:03.575Z,55726.47
2022-12-12T02:36:41.969Z,55774.22
2022-12-12T02:39:19.858Z,55798.09
2022-12-12T02:41:55.573Z,55798.09
2022-12-12T02:44:30.606Z,55907.50
2022-12-12T02:47:07.194Z,56152.22
2022-12-12T02:49:40.661Z,56211.91
2022-12-12T02:52:11.215Z,56219.88
2022-12-12T02:54:39.982Z,56196.00
2022-12-12T02:57:15.517Z,56231.81
2022-12-12T02:59:47.323Z,56327.31
2022-12-12T03:02:47.019Z,56498.44
2022-12-12T03:05:46.220Z,56675.53
2022-12-12T03:08:31.257Z,56882.47
2022-12-12T03:11:03.648Z,57085.47
2022-12-12T03:13:44.256Z,57212.84
2022-12-12T03:16:24.789Z,57477.56
2022-12-12T03:19:01.029Z,57672.63
2022-12-12T03:21:36.739Z,57521.34
2022-12-12T03:24:10.773Z,57366.09
2022-12-12T03:26:49.254Z,57401.94
2022-12-12T03:29:22.116Z,57598.97
2022-12-12T03:31:57.830Z,58032.94
2022-12-12T03:34:32.008Z,58385.31
2022-12-12T03:37:04.761Z,58634.19
2022-12-12T03:39:36.823Z,58668.03
2022-12-12T03:42:11.558Z,59006.53
2022-12-12T03:44:45.262Z,58899.00
2022-12-12T03:47:20.068Z,59351.03
2022-12-12T03:49:55.520Z,59096.13
2022-12-12T03:52:29.873Z,58964.72
2022-12-12T03:55:03.441Z,59149.91
2022-12-12T03:57:37.934Z,58958.75
2022-12-12T04:00:09.719Z,58516.72
2022-12-12T04:02:52.790Z,58644.13
2022-12-12T04:05:27.976Z,58439.06
2022-12-12T04:08:01.850Z,58377.34
2022-12-12T04:10:53.425Z,58367.38
2022-12-12T04:13:32.273Z,58138.44
2022-12-12T04:16:06.836Z,57947.31
2022-12-12T04:18:43.425Z,57714.44
2022-12-12T04:21:55.494Z,57589.03
2022-12-12T04:24:30.941Z,57754.25
2022-12-12T04:27:04.786Z,57925.44
2022-12-12T04:29:39.914Z,58138.44
2022-12-12T04:32:16.576Z,58174.28
2022-12-12T04:34:49.224Z,58058.81
2022-12-12T04:37:22.763Z,57770.16
2022-12-12T04:39:55.462Z,57569.13
2022-12-12T04:42:28.188Z,57302.41
2022-12-12T04:45:02.524Z,57009.84
2022-12-12T04:47:32.554Z,57005.88
2022-12-12T04:50:02.372Z,57091.44
2022-12-12T04:52:34.553Z,57350.19
2022-12-12T04:55:07.308Z,57551.22
2022-12-12T04:57:41.072Z,57399.94
2022-12-12T05:00:11.896Z,57196.94
2022-12-12T05:02:45.728Z,56978.00
2022-12-12T05:05:18.963Z,56719.31
2022-12-12T05:07:54.134Z,56580.00
2022-12-12T05:10:23.030Z,56597.91
2022-12-12T05:12:53.008Z,56611.84
2022-12-12T05:15:22.124Z,56460.63
2022-12-12T05:17:56.607Z,56486.50
2022-12-12T05:20:25.193Z,56392.97
2022-12-12T05:22:55.001Z,56279.56
2022-12-12T05:25:23.512Z,56325.31
2022-12-12T05:27:52.008Z,56343.22
2022-12-12T05:30:20.403Z,56263.63
2022-12-12T05:32:49.710Z,56124.34
2022-12-12T05:35:18.498Z,56146.25
2022-12-12T05:37:51.641Z,56032.84
2022-12-12T05:40:22.731Z,55939.34
2022-12-12T05:42:51.712Z,55975.16
2022-12-12T05:45:20.441Z,55903.53
2022-12-12T05:47:48.881Z,55802.06
2022-12-12T05:50:18.665Z,55889.59
2022-12-12T05:52:47.094Z,56030.84
2022-12-12T05:55:15.731Z,56104.47
2022-12-12T05:57:45.807Z,56020.91
2022-12-12T06:00:14.955Z,55871.69
2022-12-12T06:02:44.012Z,55895.56
2022-12-12T06:05:13.028Z,55937.34
2022-12-12T06:07:41.556Z,55861.75
2022-12-12T06:10:10.539Z,55849.81
2022-12-12T06:12:39.419Z,55806.03
2022-12-12T06:15:10.495Z,55688.66
2022-12-12T06:17:39.287Z,55656.84
2022-12-12T06:20:11.645Z,55672.75
2022-12-12T06:22:42.473Z,55720.50
2022-12-12T06:25:12.214Z,55692.66
2022-12-12T06:27:41.006Z,55780.19
2022-12-12T06:30:12.269Z,55798.09
2022-12-12T06:32:40.627Z,55708.56
2022-12-12T06:35:10.337Z,55724.47
2022-12-12T06:37:40.131Z,55794.09
2022-12-12T06:40:28.871Z,55772.22
2022-12-12T06:43:23.478Z,55819.97
2022-12-12T06:45:53.582Z,55766.25
2022-12-12T06:48:22.146Z,55684.69
2022-12-12T06:50:50.567Z,55650.88
2022-12-12T06:53:18.972Z,55579.25
2022-12-12T06:55:47.336Z,55555.38
2022-12-12T06:58:15.751Z,55547.44
2022-12-12T07:00:44.125Z,55531.50
2022-12-12T07:03:14.721Z,55634.94
2022-12-12T07:05:43.270Z,55662.81
2022-12-12T07:08:11.671Z,55714.53
2022-12-12T07:10:40.338Z,55587.22
2022-12-12T07:13:09.023Z,55559.34
2022-12-12T07:15:43.725Z,55555.38
2022-12-12T07:18:14.035Z,55585.22
2022-12-12T07:20:43.053Z,55607.09
2022-12-12T07:23:11.896Z,55517.59
2022-12-12T07:25:41.361Z,55515.59
2022-12-12T07:28:11.399Z,55557.38
2022-12-12T07:30:40.767Z,55525.53
2022-12-12T07:33:09.403Z,55559.34
2022-12-12T07:35:39.555Z,55565.31
2022-12-12T07:38:07.984Z,55595.16
2022-12-12T07:40:36.745Z,55603.13
2022-12-12T07:43:05.280Z,55585.22
2022-12-12T07:45:33.816Z,55535.50
2022-12-12T07:48:02.289Z,55621.03
2022-12-12T07:50:30.862Z,55627.00
2022-12-12T07:53:00.769Z,55553.41
2022-12-12T07:55:29.584Z,55499.69
2022-12-12T07:57:57.947Z,55455.91
2022-12-12T08:00:26.634Z,55428.06
2022-12-12T08:02:55.235Z,55513.59
2022-12-12T08:05:24.150Z,55527.53
2022-12-12T08:07:52.703Z,55569.31
2022-12-12T08:10:22.492Z,55529.53
2022-12-12T08:12:50.854Z,55479.78
2022-12-12T08:15:20.672Z,55559.34
2022-12-12T08:17:49.381Z,55535.50
2022-12-12T08:20:18.370Z,55503.66
2022-12-12T08:22:46.908Z,55479.78
2022-12-12T08:25:15.716Z,55634.94
2022-12-12T08:27:45.735Z,55547.44
2022-12-12T08:30:14.563Z,55587.22
2022-12-12T08:32:43.041Z,55750.34
2022-12-12T08:35:12.163Z,55740.38
2022-12-12T08:37:40.878Z,55706.56
2022-12-12T08:40:10.650Z,55666.78
2022-12-12T08:42:39.787Z,55748.34
2022-12-12T08:45:10.836Z,55837.88
2022-12-12T08:47:39.395Z,55847.81
2022-12-12T08:50:08.706Z,55849.81
2022-12-12T08:52:37.187Z,55913.47
2022-12-12T08:55:06.335Z,56162.16
2022-12-12T08:57:34.788Z,56387.00
2022-12-12T09:00:03.785Z,56562.09
2022-12-12T09:02:34.042Z,56629.75
2022-12-12T09:05:02.623Z,56574.03
2022-12-12T09:07:31.184Z,56580.00
2022-12-12T09:09:59.569Z,56749.16
2022-12-12T09:12:28.038Z,56832.72
2022-12-12T09:14:56.514Z,56824.78
2022-12-12T09:17:25.047Z,56968.06
2022-12-12T09:19:54.786Z,57069.56
2022-12-12T09:22:23.235Z,57163.09
2022-12-12T09:24:51.728Z,57079.50
2022-12-12T09:27:20.719Z,57186.97
2022-12-12T09:29:49.425Z,57314.34
2022-12-12T09:32:22.776Z,57272.56
2022-12-12T09:34:54.408Z,57368.09
2022-12-12T09:37:22.877Z,57421.81
2022-12-12T09:39:53.482Z,57734.34
2022-12-12T09:42:25.572Z,57752.25
2022-12-12T09:44:57.125Z,57746.28
2022-12-12T09:47:34.904Z,57813.94
2022-12-12T09:50:13.270Z,57760.22
2022-12-12T09:52:43.612Z,57800.03
2022-12-12T09:55:27.883Z,58020.97
2022-12-12T09:58:02.691Z,57901.53
2022-12-12T10:00:35.958Z,57770.16
2022-12-12T10:03:16.779Z,57911.50
2022-12-12T10:06:07.446Z,58019.00
2022-12-12T10:08:51.126Z,57107.38
2022-12-12T10:11:44.579Z,57123.28
2022-12-12T10:14:14.379Z,57244.69
2022-12-12T10:16:44.695Z,57007.84
2022-12-12T10:19:22.081Z,57079.50
2022-12-12T10:21:54.148Z,56784.97
2022-12-12T10:24:31.542Z,56910.34
2022-12-12T10:27:02.978Z,56892.44
2022-12-12T10:29:32.186Z,56916.31
2022-12-12T10:32:12.817Z,57011.84
2022-12-12T10:34:55.324Z,56848.66
2022-12-12T10:37:37.801Z,57013.81
2022-12-12T10:40:18.659Z,56769.06
2022-12-12T10:42:54.176Z,56880.50
2022-12-12T10:45:41.925Z,56685.47
2022-12-12T10:48:10.416Z,56574.03
2022-12-12T10:50:42.290Z,56593.94
2022-12-12T10:53:14.497Z,56512.34
2022-12-12T10:55:51.834Z,56309.41
2022-12-12T10:58:21.005Z,56474.53
2022-12-12T11:00:51.252Z,56343.22
2022-12-12T11:03:28.308Z,56422.81
2022-12-12T11:05:57.904Z,56408.88
2022-12-12T11:08:30.672Z,56207.94
2022-12-12T11:11:07.227Z,56325.31
2022-12-12T11:13:46.269Z,56098.50
2022-12-12T11:16:18.847Z,56006.97
2022-12-12T11:19:06.318Z,56237.78
2022-12-12T11:21:37.068Z,55921.44
2022-12-12T11:24:14.202Z,56005.00
2022-12-12T11:26:46.941Z,55915.47
2022-12-12T11:29:39.765Z,55780.19
2022-12-12T11:32:14.295Z,55833.88
2022-12-12T11:34:47.275Z,55762.28
2022-12-12T11:37:17.366Z,55857.75
2022-12-12T11:39:50.584Z,55682.69
2022-12-12T11:42:22.662Z,55640.91
2022-12-12T11:45:00.733Z,55696.63
2022-12-12T11:47:35.905Z,55567.31
2022-12-12T11:50:18.649Z,55595.16
2022-12-12T11:52:48.451Z,55615.06
2022-12-12T11:55:21.999Z,55551.41
2022-12-12T11:58:03.815Z,55611.09
2022-12-12T12:00:41.889Z,55330.59
2022-12-12T12:03:39.018Z,55089.94
2022-12-12T12:06:26.501Z,55054.13
2022-12-12T12:09:16.660Z,55002.41
2022-12-12T12:11:56.291Z,54972.56
2022-12-12T12:14:42.174Z,55010.38
2022-12-12T12:17:20.302Z,54926.84
2022-12-12T12:19:57.078Z,54974.56
2022-12-12T12:22:34.186Z,55153.56
2022-12-12T12:25:26.043Z,55004.41
2022-12-12T12:28:08.371Z,54946.72
2022-12-12T12:30:52.490Z,54811.47
2022-12-12T12:33:37.440Z,54908.94
2022-12-12T12:36:20.846Z,54839.31
2022-12-12T12:39:02.144Z,54845.28
2022-12-12T12:41:45.825Z,54902.97
2022-12-12T12:44:29.024Z,54759.78
2022-12-12T12:47:05.761Z,54839.31
2022-12-12T12:49:39.851Z,54737.88
2022-12-12T12:52:14.115Z,54747.84
2022-12-12T12:54:45.104Z,54891.03
2022-12-12T12:57:19.380Z,54938.75
2022-12-12T12:59:52.006Z,54861.19
2022-12-12T13:02:27.943Z,54781.66
2022-12-12T13:05:07.205Z,54875.13
2022-12-12T13:07:44.185Z,54725.97
2022-12-12T13:10:21.041Z,54809.50
2022-12-12T13:12:55.278Z,54795.56
2022-12-12T13:15:29.687Z,54847.28
2022-12-12T13:18:02.566Z,54940.75
2022-12-12T13:20:35.398Z,54807.50
2022-12-12T13:23:25.121Z,54720.00
2022-12-12T13:26:01.929Z,54650.38
2022-12-12T13:28:35.858Z,54576.81
2022-12-12T13:31:23.796Z,54666.28
2022-12-12T13:33:54.993Z,54590.72
2022-12-12T13:36:30.020Z,54930.81
2022-12-12T13:39:02.030Z,54873.13
2022-12-12T13:41:56.486Z,54720.00
2022-12-12T13:44:40.604Z,54694.13
2022-12-12T13:47:48.235Z,54529.06
2022-12-12T13:50:24.643Z,54523.09
2022-12-12T13:53:21.317Z,54497.25
2022-12-12T13:55:49.797Z,54521.13
2022-12-12T13:58:21.546Z,54465.44
2022-12-12T14:01:10.579Z,54481.34
2022-12-12T14:03:39.330Z,54499.25
2022-12-12T14:06:13.613Z,54451.53
2022-12-12T14:08:50.411Z,54527.09
2022-12-12T14:11:29.028Z,54475.38
2022-12-12T14:14:19.383Z,54477.38
2022-12-12T14:16:54.400Z,54453.50
2022-12-12T14:19:28.699Z,54449.53
2022-12-12T14:21:58.825Z,54449.53
2022-12-12T14:24:59.499Z,54393.84
2022-12-12T14:28:04.264Z,54441.56
2022-12-12T14:30:49.572Z,54393.84
2022-12-12T14:33:44.849Z,54391.84
2022-12-12T14:36:32.696Z,54340.16
2022-12-12T14:39:12.127Z,54360.03
2022-12-12T14:41:43.189Z,54350.09
2022-12-12T14:44:38.148Z,54326.25
2022-12-12T14:47:10.875Z,54369.97
2022-12-12T14:49:39.638Z,54358.06
2022-12-12T14:52:08.099Z,54318.28
2022-12-12T14:54:37.982Z,54403.78
2022-12-12T14:57:08.865Z,54377.94
2022-12-12T14:59:40.528Z,54358.06
2022-12-12T15:02:26.034Z,54385.91
2022-12-12T15:05:04.367Z,54395.84
2022-12-12T15:07:35.563Z,54393.84
2022-12-12T15:10:24.234Z,54395.84
2022-12-12T15:12:52.814Z,54437.59
2022-12-12T15:15:26.785Z,54415.72
2022-12-12T15:17:57.038Z,54441.56
2022-12-12T15:20:28.287Z,54493.28
2022-12-12T15:22:58.875Z,54483.34
2022-12-12T15:25:32.235Z,54477.38
2022-12-12T15:28:01.808Z,54469.41
2022-12-12T15:30:34.503Z,54499.25
2022-12-12T15:33:03.944Z,54495.28
2022-12-12T15:35:32.737Z,54505.22
2022-12-12T15:38:02.426Z,54505.22
2022-12-12T15:40:34.059Z,54539.03
2022-12-12T15:43:05.291Z,54509.19
2022-12-12T15:45:36.776Z,54548.97
2022-12-12T15:48:07.955Z,54546.97
2022-12-12T15:50:53.544Z,54582.78
2022-12-12T15:53:24.353Z,54568.84
2022-12-12T15:55:59.928Z,54558.91
2022-12-12T15:58:31.063Z,54580.78
2022-12-12T16:01:21.435Z,54580.78
2022-12-12T16:03:56.111Z,54616.56
2022-12-12T16:06:26.696Z,54632.50
2022-12-12T16:09:02.309Z,54620.56
2022-12-12T16:11:39.877Z,54598.69
2022-12-12T16:14:26.292Z,54656.34
2022-12-12T16:16:59.055Z,54642.44
2022-12-12T16:19:53.250Z,54656.34
2022-12-12T16:22:37.673Z,54660.31
2022-12-12T16:25:19.003Z,54664.31
2022-12-12T16:27:52.767Z,54648.41
2022-12-12T16:30:21.761Z,54660.31
2022-12-12T16:32:50.181Z,54676.25
2022-12-12T16:35:21.366Z,54686.19
2022-12-12T16:37:50.407Z,54676.25
2022-12-12T16:40:21.196Z,54684.19
2022-12-12T16:42:56.096Z,54676.25
2022-12-12T16:45:24.825Z,54642.44
2022-12-12T16:47:53.357Z,54710.06
2022-12-12T16:50:21.788Z,54692.16
2022-12-12T16:52:50.349Z,54708.06
2022-12-12T16:55:22.433Z,54775.69
2022-12-12T16:57:52.519Z,54741.88
2022-12-12T17:00:21.622Z,54769.72
2022-12-12T17:02:50.103Z,54721.97
2022-12-12T17:05:22.574Z,54708.06
2022-12-12T17:07:52.093Z,54712.03
2022-12-12T17:10:21.498Z,54739.88
2022-12-12T17:12:52.259Z,54741.88
2022-12-12T17:15:23.925Z,54739.88
2022-12-12T17:17:52.674Z,54751.81
2022-12-12T17:20:21.502Z,54720.00
2022-12-12T17:22:51.021Z,54759.78
2022-12-12T17:25:21.555Z,54769.72
2022-12-12T17:27:51.817Z,54771.69
2022-12-12T17:30:21.331Z,54777.66
2022-12-12T17:35:37.112Z,54787.63
2022-12-12T17:38:05.953Z,54769.72
2022-12-12T17:40:34.884Z,54795.56
2022-12-12T17:43:05.064Z,54785.63
2022-12-12T17:45:33.628Z,54765.72
2022-12-12T17:48:04.772Z,54771.69
2022-12-12T17:50:37.104Z,54787.63
2022-12-12T17:53:09.718Z,54757.78
2022-12-12T17:55:55.010Z,54803.53
2022-12-12T17:58:29.778Z,54799.53
2022-12-12T18:00:58.589Z,54797.56
2022-12-12T18:03:27.683Z,54815.47
2022-12-12T18:05:56.352Z,54833.34
2022-12-12T18:08:24.862Z,54823.41
2022-12-12T18:10:53.324Z,54809.50
2022-12-12T18:13:21.716Z,54787.63
2022-12-12T18:15:56.675Z,54757.78
2022-12-12T18:18:25.532Z,54797.56
2022-12-12T18:20:54.551Z,54795.56
2022-12-12T18:23:23.125Z,54841.31
2022-12-12T18:25:51.520Z,54847.28
2022-12-12T18:28:20.347Z,54857.22
2022-12-12T18:30:51.111Z,54857.22
2022-12-12T18:33:21.006Z,54865.19
2022-12-12T18:35:49.487Z,54895.00
2022-12-12T18:38:19.284Z,54841.31
2022-12-12T18:40:47.759Z,54817.44
2022-12-12T18:43:17.677Z,54827.38
2022-12-12T18:45:46.398Z,54829.38
2022-12-12T18:48:15.005Z,54849.25
2022-12-12T18:50:44.893Z,54797.56
2022-12-12T18:53:13.582Z,54831.38
2022-12-12T18:55:42.837Z,54873.13
2022-12-12T18:58:12.389Z,54837.34
2022-12-12T19:00:41.143Z,54863.19
2022-12-12T19:03:10.410Z,54853.25
2022-12-12T19:05:42.370Z,54837.34
2022-12-12T19:08:12.585Z,54827.38
2022-12-12T19:10:42.237Z,54827.38
2022-12-12T19:13:10.817Z,54819.44
2022-12-12T19:15:39.614Z,54815.47
2022-12-12T19:18:08.387Z,54835.34
2022-12-12T19:20:37.588Z,54827.38
2022-12-12T19:23:06.100Z,54839.31
2022-12-12T19:25:43.228Z,54843.28
2022-12-12T19:28:36.607Z,54829.38
2022-12-12T19:31:09.003Z,54833.34
2022-12-12T19:33:38.066Z,54879.09
2022-12-12T19:36:11.642Z,54861.19
2022-12-12T19:38:41.006Z,54837.34
2022-12-12T19:41:13.478Z,54853.25
2022-12-12T19:43:45.955Z,54855.22
2022-12-12T19:46:20.193Z,54851.25
2022-12-12T19:48:49.241Z,54833.34
2022-12-12T19:51:23.053Z,54879.09
2022-12-12T19:53:53.571Z,54859.22
2022-12-12T19:56:26.276Z,54845.28
2022-12-12T19:58:56.992Z,54895.00
2022-12-12T20:01:29.049Z,54879.09
2022-12-12T20:04:04.144Z,54904.94
2022-12-12T20:06:37.333Z,54891.03
2022-12-12T20:09:05.883Z,54875.13
2022-12-12T20:11:37.303Z,54889.03
2022-12-12T20:14:06.547Z,54899.00
2022-12-12T20:16:35.257Z,54885.06
2022-12-12T20:19:07.868Z,54869.16
2022-12-12T20:22:10.709Z,54902.97
2022-12-12T20:24:25.734Z,54853.25
2022-12-12T20:26:56.274Z,54855.22
2022-12-12T20:29:25.030Z,54855.22
2022-12-12T20:31:53.766Z,54899.00
2022-12-12T20:34:24.995Z,54877.09
2022-12-12T20:36:56.015Z,54875.13
2022-12-12T20:39:26.741Z,54871.16
2022-12-12T20:41:57.831Z,54841.31
2022-12-12T20:44:29.181Z,54843.28
2022-12-12T20:46:59.930Z,54867.16
2022-12-12T20:49:29.703Z,54902.97
2022-12-12T20:51:59.557Z,54883.06
2022-12-12T20:54:30.258Z,54879.09
2022-12-12T20:57:01.168Z,54893.03
2022-12-12T20:59:30.371Z,54873.13
2022-12-12T21:01:59.119Z,54887.06
2022-12-12T21:04:28.406Z,54831.38
2022-12-12T21:06:57.014Z,54851.25
2022-12-12T21:09:26.926Z,54902.97
2022-12-12T21:11:58.217Z,54881.09
2022-12-12T21:14:30.926Z,54851.25
2022-12-12T21:16:59.767Z,54851.25
2022-12-12T21:19:28.501Z,54883.06
2022-12-12T21:21:57.372Z,54819.44
2022-12-12T21:24:27.012Z,54853.25
2022-12-12T21:26:56.158Z,54851.25
2022-12-12T21:29:25.214Z,54831.38
2022-12-12T21:31:55.619Z,54853.25
2022-12-12T21:34:25.115Z,54849.25
2022-12-12T21:36:55.069Z,54869.16
2022-12-12T21:39:27.305Z,54889.03
2022-12-12T21:41:56.243Z,54910.91
2022-12-12T21:44:25.928Z,54910.91
2022-12-12T21:46:56.785Z,54879.09
2022-12-12T21:49:31.205Z,54934.78
2022-12-12T21:52:01.889Z,54932.78
2022-12-12T21:54:31.574Z,54926.84
2022-12-12T21:57:01.773Z,54902.97
2022-12-12T21:59:30.701Z,54906.94
2022-12-12T22:02:01.908Z,54976.56
2022-12-12T22:04:30.741Z,54990.47
2022-12-12T22:06:59.781Z,54930.81
2022-12-12T22:09:28.381Z,54897.00
2022-12-12T22:12:03.505Z,54879.09
2022-12-12T22:14:34.114Z,54922.84
2022-12-12T22:17:04.736Z,54926.84
2022-12-12T22:19:33.161Z,54899.00
2022-12-12T22:22:01.696Z,54918.88
2022-12-12T22:24:30.305Z,54847.28
2022-12-12T22:26:58.983Z,54916.88
2022-12-12T22:29:27.558Z,54873.13
2022-12-12T22:31:56.157Z,54887.06
2022-12-12T22:34:27.019Z,54895.00
2022-12-12T22:36:56.020Z,54883.06
2022-12-12T22:39:26.380Z,54887.06
2022-12-12T22:41:56.459Z,54916.88
2022-12-12T22:44:27.675Z,54877.09
2022-12-12T22:46:56.965Z,54900.97
2022-12-12T22:49:27.807Z,54904.94
2022-12-12T22:51:57.530Z,54879.09
2022-12-12T22:54:26.480Z,54885.06
2022-12-12T22:56:55.297Z,54902.97
2022-12-12T22:59:25.700Z,54912.91
2022-12-12T23:01:54.182Z,54887.06
2022-12-12T23:04:22.874Z,54859.22
2022-12-12T23:06:53.440Z,54873.13
2022-12-12T23:09:26.332Z,54849.25
2022-12-12T23:11:55.709Z,54851.25
2022-12-12T23:14:26.352Z,54831.38
2022-12-12T23:16:56.061Z,54883.06
2022-12-12T23:19:27.373Z,54869.16
2022-12-12T23:21:57.127Z,54871.16
2022-12-12T23:24:25.912Z,54930.81
2022-12-12T23:26:54.464Z,54918.88
2022-12-12T23:29:23.364Z,54942.75
2022-12-12T23:31:52.240Z,54914.91
2022-12-12T23:34:23.541Z,54877.09
2022-12-12T23:36:52.481Z,54847.28
2022-12-12T23:39:22.865Z,54918.88
2022-12-12T23:41:51.384Z,54938.75
2022-12-12T23:44:21.739Z,54990.47
2022-12-12T23:46:51.302Z,54956.66
2022-12-12T23:49:22.186Z,54928.81
2022-12-12T23:51:52.712Z,54954.69
2022-12-12T23:54:24.124Z,54914.91
2022-12-12T23:56:53.135Z,54930.81
2022-12-12T23:59:23.138Z,54942.75
